Airfield :
LOGIN :

Register | Disclaimer

   EN    FR    IT 

 










Legend :    VFR   Marginal VFR   IFR   Intensive IFR   Very Intensive IFR
Visi :
Ceiling :
>= 8 km
>= 3000ft
5 to 8 km
1000 to 3000 ft
1500m to 5 km
500 to 1000 ft
800 to 1500m
200 to 500 ft
< 800m
< 200 ft
Symbols :   Thunderstorms  Fog  Heavy snow  Heavy precipitations  Wind > 20 kt
SIGMETs :     Misc.  Thunderstorms  Icing  Turbulence  Mountain Waves  Volcanic Ashes







- Airport Elevation : 93 ft
- IATA code : XRY


LEJR - Jerez

CURRENT METAR :
  • 241730Z 23009KT 9999 FEW035 13/04 Q1014

EXPIRED METARs :
  • 241700Z 23009KT 200V260 9999 FEW035 14/04 Q1014
  • 241630Z 25010KT 220V280 9999 FEW030 SCT035 14/04 Q1014
  • 241600Z 23009KT 9999 FEW025 SCT035 14/04 Q1014
  • 241530Z 26009KT 210V290 9999 FEW025 SCT035 13/05 Q1014
  • 241500Z 23009KT 170V250 9999 FEW025 SCT035 BKN060 14/04 Q1014

TAF TAF LEJR
Valid from the 24 at 18:00 until the 25 at 18:00 UTC


241700Z 2418/2518 21008KT 9999 SCT020 SCT030 TX17/2515Z TN06/2506Z
PROB40
TEMPO 2505/2518 4000 SHRA SCT015 SCT025TCU
TEMPO 2509/2517 21015G25KT
No reported NOTAMs for that airfield.



MET'MAP, your aeronautical weather chart ! - Copyright ORBIFLY December 2007 - Disclaimer

ORBIFLY MET'MAP TEAM :

Programming & Development : Alexandra Zaïnal
Concept & Development : Baudouin d'Aumeries
Co-Development & Prog : Marc-Olivier Méhu
Technical & hardware support : Manuel Goepfert

Contact : metmap@orbifly.com




SOURCES & CREDITS :

   NOAA